createdAt,value
2018-07-12T00:00:02.912Z,51.30
2018-07-12T00:01:03.091Z,52.26
2018-07-12T00:02:03.251Z,54.27
2018-07-12T00:04:45.519Z,58.11
2018-07-12T00:05:45.688Z,58.69
2018-07-12T00:06:45.856Z,58.59
2018-07-12T00:07:46.016Z,59.74
2018-07-12T00:08:46.182Z,59.64
2018-07-12T00:09:46.347Z,61.37
2018-07-12T00:10:46.516Z,61.56
2018-07-12T00:11:46.681Z,62.04
2018-07-12T00:12:46.847Z,62.13
2018-07-12T00:13:47.014Z,63.29
2018-07-12T00:14:47.188Z,63.67
2018-07-12T00:15:47.367Z,63.48
2018-07-12T00:16:47.538Z,62.68
2018-07-12T00:17:47.718Z,62.52
2018-07-12T00:18:47.871Z,62.39
2018-07-12T00:21:30.454Z,60.86
2018-07-12T00:22:30.630Z,60.70
2018-07-12T00:23:30.789Z,62.42
2018-07-12T00:24:30.980Z,61.24
2018-07-12T00:25:31.126Z,62.77
2018-07-12T00:26:31.291Z,62.96
2018-07-12T00:27:31.459Z,62.87
2018-07-12T00:28:31.625Z,63.64
2018-07-12T00:29:31.795Z,64.50
2018-07-12T00:30:31.961Z,67.18
2018-07-12T00:31:32.135Z,67.50
2018-07-12T00:32:32.298Z,66.55
2018-07-12T00:33:32.462Z,66.45
2018-07-12T00:34:32.630Z,67.79
2018-07-12T00:35:32.801Z,67.79
2018-07-12T00:38:15.072Z,69.71
2018-07-12T00:39:15.225Z,68.95
2018-07-12T00:40:15.411Z,68.08
2018-07-12T00:41:15.583Z,66.71
2018-07-12T00:42:15.739Z,64.53
2018-07-12T00:43:15.892Z,64.69
2018-07-12T00:44:16.076Z,64.69
2018-07-12T00:45:16.248Z,64.50
2018-07-12T00:46:16.408Z,63.45
2018-07-12T00:47:16.596Z,64.89
2018-07-12T00:48:16.766Z,64.98
2018-07-12T00:49:16.980Z,65.26
2018-07-12T00:50:17.120Z,62.87
2018-07-12T00:51:17.277Z,62.68
2018-07-12T00:52:17.443Z,63.92
2018-07-12T00:54:59.716Z,61.24
2018-07-12T00:55:59.887Z,61.24
2018-07-12T00:57:00.101Z,61.24
2018-07-12T00:58:00.224Z,61.05
2018-07-12T00:59:00.394Z,61.24
2018-07-12T01:00:00.564Z,61.05
2018-07-12T01:01:00.733Z,61.05
2018-07-12T01:02:00.894Z,60.96
2018-07-12T01:03:01.069Z,60.00
2018-07-12T01:04:01.244Z,61.15
2018-07-12T01:06:43.796Z,55.56
2018-07-12T01:07:43.962Z,55.56
2018-07-12T01:08:44.131Z,56.52
2018-07-12T01:09:44.298Z,56.71
2018-07-12T01:10:44.450Z,57.09
2018-07-12T01:11:44.631Z,58.05
2018-07-12T01:12:44.797Z,56.64
2018-07-12T01:13:44.967Z,56.61
2018-07-12T01:14:45.133Z,56.04
2018-07-12T01:15:45.306Z,55.94
2018-07-12T01:18:27.575Z,56.64
2018-07-12T01:19:27.740Z,57.21
2018-07-12T01:20:27.899Z,57.70
2018-07-12T01:21:28.061Z,58.08
2018-07-12T01:22:28.232Z,57.89
2018-07-12T01:23:28.398Z,58.84
2018-07-12T01:24:36.524Z,58.94
2018-07-12T01:25:28.678Z,58.94
2018-07-12T01:26:28.847Z,60.38
2018-07-12T01:27:29.018Z,61.15
2018-07-12T01:28:29.181Z,60.00
2018-07-12T01:29:29.356Z,62.01
2018-07-12T01:30:29.528Z,62.10
2018-07-12T01:31:29.694Z,60.67
2018-07-12T01:32:29.854Z,60.47
2018-07-12T01:33:30.026Z,61.15
2018-07-12T01:34:30.194Z,61.05
2018-07-12T01:35:30.370Z,61.63
2018-07-12T01:36:30.537Z,62.59
2018-07-12T01:37:38.658Z,62.49
2018-07-12T01:38:30.810Z,62.77
2018-07-12T01:39:30.978Z,62.20
2018-07-12T01:40:31.145Z,62.30
2018-07-12T01:41:31.315Z,62.87
2018-07-12T01:42:31.482Z,63.06
2018-07-12T01:43:31.648Z,63.26
2018-07-12T01:44:31.813Z,63.06
2018-07-12T01:45:31.979Z,63.64
2018-07-12T01:46:32.148Z,62.77
2018-07-12T01:47:33.108Z,62.77
2018-07-12T01:48:32.415Z,63.64
2018-07-12T01:49:32.587Z,63.64
2018-07-12T01:50:32.751Z,63.06
2018-07-12T01:51:32.920Z,62.68
2018-07-12T01:54:15.188Z,63.16
2018-07-12T01:55:15.357Z,62.87
2018-07-12T01:56:15.525Z,62.39
2018-07-12T01:57:15.694Z,62.87
2018-07-12T01:58:15.848Z,62.20
2018-07-12T01:59:16.014Z,62.96
2018-07-12T02:00:16.180Z,63.45
2018-07-12T02:01:16.343Z,60.96
2018-07-12T02:02:16.515Z,59.97
2018-07-12T02:03:16.676Z,59.39
2018-07-12T02:04:16.840Z,59.68
2018-07-12T02:05:17.006Z,58.81
2018-07-12T02:06:17.175Z,60.73
2018-07-12T02:07:17.337Z,58.24
2018-07-12T02:08:17.520Z,56.71
2018-07-12T02:10:59.773Z,56.32
2018-07-12T02:11:59.942Z,56.61
2018-07-12T02:13:00.110Z,57.67
2018-07-12T02:14:00.276Z,58.05
2018-07-12T02:15:00.445Z,57.86
2018-07-12T02:16:00.614Z,59.04
2018-07-12T02:17:00.808Z,59.58
2018-07-12T02:18:00.947Z,60.06
2018-07-12T02:19:01.120Z,60.16
2018-07-12T02:20:01.810Z,62.74
2018-07-12T02:22:43.876Z,62.36
2018-07-12T02:23:44.042Z,62.96
2018-07-12T02:24:44.209Z,62.84
2018-07-12T02:25:44.375Z,60.25
2018-07-12T02:26:44.542Z,61.02
2018-07-12T02:27:44.712Z,60.35
2018-07-12T02:28:44.886Z,60.06
2018-07-12T02:29:45.049Z,59.77
2018-07-12T02:30:45.212Z,57.86
2018-07-12T02:31:45.392Z,58.24
2018-07-12T02:34:27.647Z,56.81
2018-07-12T02:35:27.811Z,56.54
2018-07-12T02:36:27.981Z,56.81
2018-07-12T02:37:28.151Z,55.85
2018-07-12T02:38:28.316Z,56.52
2018-07-12T02:39:28.482Z,56.99
2018-07-12T02:40:28.652Z,56.04
2018-07-12T02:41:28.815Z,55.46
2018-07-12T02:42:28.980Z,56.61
2018-07-12T02:43:29.149Z,57.95
2018-07-12T02:44:29.313Z,58.05
2018-07-12T02:45:29.479Z,58.37
2018-07-12T02:46:29.647Z,59.23
2018-07-12T02:47:29.817Z,56.42
2018-07-12T02:48:29.991Z,58.27
2018-07-12T02:51:12.255Z,60.19
2018-07-12T02:52:12.418Z,62.01
2018-07-12T02:53:12.584Z,63.45
2018-07-12T02:54:12.766Z,62.87
2018-07-12T02:55:12.918Z,64.50
2018-07-12T02:56:13.091Z,64.79
2018-07-12T02:57:13.258Z,64.59
2018-07-12T02:58:13.418Z,66.13
2018-07-12T02:59:13.594Z,66.32
2018-07-12T03:00:13.762Z,66.99
2018-07-12T03:01:13.933Z,67.38
2018-07-12T03:02:14.101Z,67.47
2018-07-12T03:03:14.265Z,67.85
2018-07-12T03:04:14.432Z,67.28
2018-07-12T03:05:14.596Z,67.09
2018-07-12T03:07:57.151Z,67.99
2018-07-12T03:08:57.318Z,68.85
2018-07-12T03:09:57.485Z,68.08
2018-07-12T03:10:57.649Z,69.42
2018-07-12T03:11:57.817Z,70.09
2018-07-12T03:12:57.987Z,69.23
2018-07-12T03:13:58.149Z,71.63
2018-07-12T03:14:58.318Z,70.38
2018-07-12T03:15:58.488Z,70.38
2018-07-12T03:16:58.646Z,70.67
2018-07-12T03:17:58.818Z,72.39
2018-07-12T03:18:58.985Z,71.53
2018-07-12T03:19:59.151Z,71.53
2018-07-12T03:20:59.315Z,71.44
2018-07-12T03:21:59.482Z,72.78
2018-07-12T03:24:32.064Z,71.82
2018-07-12T03:25:32.225Z,72.49
2018-07-12T03:26:32.388Z,72.59
2018-07-12T03:27:32.554Z,73.74
2018-07-12T03:28:32.720Z,73.45
2018-07-12T03:29:32.886Z,72.30
2018-07-12T03:30:33.059Z,72.59
2018-07-12T03:31:35.783Z,72.49
2018-07-12T03:32:37.235Z,71.92
2018-07-12T03:33:33.544Z,74.22
2018-07-12T03:34:33.699Z,73.83
2018-07-12T03:35:33.865Z,73.07
2018-07-12T03:36:34.026Z,72.68
2018-07-12T03:37:34.203Z,73.74
2018-07-12T03:38:34.370Z,73.55
2018-07-12T03:41:06.647Z,74.51
2018-07-12T03:42:06.816Z,74.60
2018-07-12T03:43:06.978Z,74.89
2018-07-12T03:44:07.147Z,74.12
2018-07-12T03:45:07.315Z,74.41
2018-07-12T03:46:07.486Z,73.55
2018-07-12T03:47:07.649Z,75.37
2018-07-12T03:48:07.818Z,75.56
2018-07-12T03:49:07.986Z,74.98
2018-07-12T03:50:08.155Z,75.08
2018-07-12T03:51:08.322Z,74.02
2018-07-12T03:52:08.495Z,74.89
2018-07-12T03:53:08.655Z,77.19
2018-07-12T03:54:08.824Z,76.71
2018-07-12T03:55:08.991Z,74.60
2018-07-12T03:57:51.251Z,74.22
2018-07-12T03:58:51.423Z,74.89
2018-07-12T03:59:51.585Z,75.18
2018-07-12T04:00:51.753Z,74.89
2018-07-12T04:01:51.920Z,76.52
2018-07-12T04:02:52.086Z,76.62
2018-07-12T04:03:52.259Z,75.85
2018-07-12T04:04:52.420Z,75.95
2018-07-12T04:05:52.588Z,77.48
2018-07-12T04:06:52.751Z,77.00
2018-07-12T04:07:52.919Z,76.52
2018-07-12T04:08:53.090Z,75.95
2018-07-12T04:09:53.253Z,76.14
2018-07-12T04:10:54.352Z,76.52
2018-07-12T04:11:53.585Z,75.85
2018-07-12T04:23:24.328Z,70.35
2018-07-12T04:24:24.491Z,70.83
2018-07-12T04:25:24.657Z,70.64
2018-07-12T04:26:24.833Z,70.06
2018-07-12T04:27:25.004Z,70.35
2018-07-12T04:28:25.173Z,71.59
2018-07-12T04:29:25.344Z,70.48
2018-07-12T04:30:25.504Z,71.05
2018-07-12T04:31:25.674Z,70.57
2018-07-12T04:32:25.845Z,70.96
2018-07-12T04:35:20.821Z,72.20
2018-07-12T04:36:20.980Z,71.44
2018-07-12T04:37:21.162Z,72.68
2018-07-12T04:38:21.319Z,72.59
2018-07-12T04:39:28.975Z,73.65
2018-07-12T04:40:21.636Z,74.79
2018-07-12T04:41:21.800Z,75.08
2018-07-12T04:42:21.968Z,72.68
2018-07-12T04:43:22.130Z,72.49
2018-07-12T04:44:22.309Z,72.30
2018-07-12T04:45:22.479Z,71.05
2018-07-12T04:46:22.635Z,70.29
2018-07-12T04:47:22.946Z,69.33
2018-07-12T04:48:23.003Z,68.66
2018-07-12T04:49:23.159Z,68.66
2018-07-12T04:52:06.426Z,70.48
2018-07-12T04:53:06.587Z,71.34
2018-07-12T04:54:06.754Z,73.35
2018-07-12T04:55:06.918Z,71.72
2018-07-12T04:56:07.102Z,71.53
2018-07-12T04:57:07.276Z,69.90
2018-07-12T04:58:14.945Z,70.76
2018-07-12T04:59:07.549Z,70.00
2018-07-12T05:00:07.718Z,68.95
2018-07-12T05:01:07.889Z,68.95
2018-07-12T05:02:08.049Z,63.45
2018-07-12T05:03:08.222Z,59.71
2018-07-12T05:04:08.384Z,54.41
2018-07-12T05:05:08.554Z,54.41
2018-07-12T05:06:08.715Z,54.32
2018-07-12T05:07:08.888Z,51.92
2018-07-12T05:08:09.965Z,48.95
2018-07-12T05:09:09.240Z,45.86
2018-07-12T05:10:09.405Z,45.29
2018-07-12T05:11:09.563Z,44.90
2018-07-12T05:12:09.739Z,45.29
2018-07-12T05:14:52.005Z,43.08
2018-07-12T05:15:52.173Z,43.95
2018-07-12T05:17:00.307Z,43.18
2018-07-12T05:17:52.467Z,44.06
2018-07-12T05:18:52.641Z,44.83
2018-07-12T05:19:52.802Z,46.75
2018-07-12T05:21:00.909Z,49.81
2018-07-12T05:21:53.084Z,51.34
2018-07-12T05:22:53.251Z,52.40
2018-07-12T05:23:53.407Z,50.29
2018-07-12T05:24:53.580Z,51.06
2018-07-12T05:25:53.748Z,53.26
2018-07-12T05:26:53.919Z,56.13
2018-07-12T05:27:54.083Z,58.24
2018-07-12T05:28:54.250Z,58.34
2018-07-12T05:29:54.415Z,60.16
2018-07-12T05:30:54.578Z,57.09
2018-07-12T05:31:54.736Z,58.24
2018-07-12T05:32:54.907Z,59.42
2018-07-12T05:33:55.095Z,60.09
2018-07-12T05:34:55.260Z,62.39
2018-07-12T05:37:37.545Z,63.86
2018-07-12T05:38:37.719Z,64.63
2018-07-12T05:39:37.890Z,67.32
2018-07-12T05:40:38.053Z,69.23
2018-07-12T05:41:38.224Z,70.29
2018-07-12T05:42:38.397Z,72.78
2018-07-12T05:43:38.562Z,76.23
2018-07-12T05:44:38.729Z,77.86
2018-07-12T05:45:38.895Z,78.82
2018-07-12T05:46:39.096Z,77.80
2018-07-12T05:47:39.218Z,80.20
2018-07-12T05:48:39.390Z,81.07
2018-07-12T05:49:39.554Z,81.07
2018-07-12T05:50:39.726Z,81.07
2018-07-12T05:51:39.937Z,82.21
2018-07-12T05:58:21.644Z,85.24
2018-07-12T05:59:28.379Z,87.15
2018-07-12T06:00:20.778Z,87.35
2018-07-12T06:01:20.953Z,87.82
2018-07-12T06:02:21.114Z,86.87
2018-07-12T06:03:21.304Z,88.69
2018-07-12T06:04:21.471Z,90.27
2018-07-12T06:05:21.637Z,89.31
2018-07-12T06:06:21.806Z,87.92
2018-07-12T06:07:21.965Z,86.19
2018-07-12T06:08:22.135Z,85.91
2018-07-12T06:09:22.304Z,86.19
2018-07-12T06:10:30.430Z,86.00
2018-07-12T06:11:22.594Z,86.96
2018-07-12T06:12:22.763Z,86.68
2018-07-12T06:13:22.937Z,86.10
2018-07-12T06:14:23.107Z,86.00
2018-07-12T06:15:23.271Z,87.15
2018-07-12T06:16:23.440Z,86.38
2018-07-12T06:17:23.608Z,86.77
2018-07-12T06:18:23.777Z,87.25
2018-07-12T06:19:23.936Z,87.05
2018-07-12T06:20:24.970Z,87.35
2018-07-12T06:21:24.257Z,87.82
2018-07-12T06:22:24.434Z,87.73
2018-07-12T06:23:24.593Z,87.92
2018-07-12T06:24:24.775Z,84.66
2018-07-12T06:25:24.935Z,87.35
2018-07-12T06:28:08.201Z,87.25
2018-07-12T06:29:08.370Z,86.00
2018-07-12T06:30:08.540Z,87.25
2018-07-12T06:31:16.026Z,89.75
2018-07-12T06:32:08.812Z,89.12
2018-07-12T06:33:08.979Z,89.69
2018-07-12T06:34:09.149Z,88.73
2018-07-12T06:35:09.314Z,87.58
2018-07-12T06:36:09.484Z,87.58
2018-07-12T06:37:09.661Z,89.79
2018-07-12T06:38:09.812Z,90.17
2018-07-12T06:39:09.983Z,90.80
2018-07-12T06:40:10.148Z,92.05
2018-07-12T06:41:10.318Z,92.38
2018-07-12T06:43:52.584Z,91.52
2018-07-12T06:44:52.756Z,92.48
2018-07-12T06:45:52.927Z,92.48
2018-07-12T06:46:53.088Z,91.13
2018-07-12T06:47:53.253Z,91.04
2018-07-12T06:48:53.427Z,90.46
2018-07-12T06:49:53.580Z,89.89
2018-07-12T06:51:01.259Z,89.89
2018-07-12T06:51:53.910Z,90.37
2018-07-12T06:52:54.150Z,91.52
2018-07-12T06:53:54.263Z,92.72
2018-07-12T06:55:01.887Z,92.43
2018-07-12T06:55:54.548Z,94.45
2018-07-12T06:56:54.715Z,93.87
2018-07-12T06:57:54.884Z,92.86
2018-07-12T06:58:55.053Z,94.06
2018-07-12T06:59:55.223Z,95.31
2018-07-12T07:00:55.398Z,93.92
2018-07-12T07:01:55.563Z,92.96
2018-07-12T07:02:55.732Z,91.18
2018-07-12T07:03:55.902Z,92.24
2018-07-12T07:04:56.590Z,94.93
2018-07-12T07:05:56.447Z,93.96
2018-07-12T07:06:56.514Z,93.19
2018-07-12T07:07:56.573Z,95.31
2018-07-12T07:08:56.745Z,95.70
2018-07-12T07:11:39.316Z,96.22
2018-07-12T07:12:39.488Z,95.55
2018-07-12T07:13:39.652Z,96.56
2018-07-12T07:14:39.845Z,98.29
2018-07-12T07:15:39.999Z,99.26
2018-07-12T07:16:40.162Z,98.19
2018-07-12T07:17:40.331Z,98.10
2018-07-12T07:18:40.502Z,99.99
2018-07-12T07:19:40.673Z,99.99
2018-07-12T07:20:40.843Z,99.73
2018-07-12T07:21:41.015Z,96.56
2018-07-12T07:22:41.185Z,98.19
2018-07-12T07:23:41.353Z,98.96
2018-07-12T07:24:41.522Z,99.99
2018-07-12T07:25:41.719Z,99.93
2018-07-12T07:28:13.972Z,97.86
2018-07-12T07:29:14.139Z,99.11
2018-07-12T07:30:14.306Z,99.99
2018-07-12T07:31:22.139Z,99.99
2018-07-12T07:32:16.619Z,99.99
2018-07-12T07:33:14.799Z,99.99
2018-07-12T07:34:15.030Z,99.99
2018-07-12T07:35:15.125Z,99.99
2018-07-12T07:36:15.290Z,99.99
2018-07-12T07:37:15.457Z,99.99
2018-07-12T07:38:15.627Z,99.99
2018-07-12T07:39:15.800Z,99.99
2018-07-12T07:40:15.966Z,99.99
2018-07-12T07:41:16.131Z,99.99
2018-07-12T07:43:48.427Z,99.99
2018-07-12T07:44:48.590Z,99.99
2018-07-12T07:45:49.435Z,99.99
2018-07-12T07:46:48.857Z,97.96
2018-07-12T07:47:49.025Z,99.99
2018-07-12T07:48:49.223Z,99.49
2018-07-12T07:49:49.408Z,99.99
2018-07-12T07:50:49.575Z,99.99
2018-07-12T07:51:49.765Z,99.99
2018-07-12T07:52:49.912Z,99.11
2018-07-12T07:53:50.090Z,99.64
2018-07-12T07:54:50.321Z,99.99
2018-07-12T07:55:50.363Z,99.99
2018-07-12T07:56:50.532Z,99.99
2018-07-12T07:57:50.702Z,99.99
2018-07-12T08:00:22.990Z,99.99
2018-07-12T08:01:23.169Z,99.99
2018-07-12T08:02:23.333Z,99.99
2018-07-12T08:03:23.591Z,99.99
2018-07-12T08:04:23.725Z,99.99
2018-07-12T08:05:25.530Z,99.99
2018-07-12T08:06:24.054Z,94.30
2018-07-12T08:07:24.261Z,99.64
2018-07-12T08:08:24.447Z,99.35
2018-07-12T08:09:24.681Z,99.83
2018-07-12T08:10:24.779Z,99.35
2018-07-12T08:11:24.995Z,99.78
2018-07-12T08:12:26.064Z,99.54
2018-07-12T08:13:25.341Z,99.26
2018-07-12T08:14:25.504Z,98.96
2018-07-12T08:16:58.076Z,99.99
2018-07-12T08:17:58.244Z,99.99
2018-07-12T08:18:58.523Z,98.82
2018-07-12T08:19:58.587Z,96.89
2018-07-12T08:21:01.308Z,99.99
2018-07-12T08:21:58.977Z,99.99
2018-07-12T08:22:59.142Z,99.98
2018-07-12T08:23:59.312Z,99.01
2018-07-12T08:25:00.321Z,99.64
2018-07-12T08:25:59.611Z,99.99
2018-07-12T08:28:31.907Z,99.99
2018-07-12T08:29:32.076Z,99.99
2018-07-12T08:30:32.247Z,99.99
2018-07-12T08:31:32.418Z,99.99
2018-07-12T08:32:39.753Z,99.99
2018-07-12T08:33:32.797Z,99.99
2018-07-12T08:34:32.987Z,99.99
2018-07-12T08:35:33.149Z,99.99
2018-07-12T08:36:33.343Z,99.99
2018-07-12T08:37:40.951Z,99.99
2018-07-12T08:38:33.631Z,99.99
2018-07-12T08:39:33.802Z,99.99
2018-07-12T08:40:33.997Z,99.99
2018-07-12T08:41:34.137Z,99.99
2018-07-12T08:42:34.452Z,99.99
2018-07-12T08:43:34.570Z,99.99
2018-07-12T08:44:34.786Z,99.99
2018-07-12T08:45:34.821Z,99.99
2018-07-12T08:46:34.971Z,99.99
2018-07-12T08:47:35.968Z,99.99
2018-07-12T08:48:35.387Z,99.99
2018-07-12T08:49:35.556Z,99.99
2018-07-12T08:50:35.728Z,99.99
2018-07-12T08:51:35.892Z,99.99
2018-07-12T08:54:18.171Z,99.99
2018-07-12T08:55:25.779Z,99.74
2018-07-12T08:56:18.441Z,99.99
2018-07-12T08:57:18.609Z,99.99
2018-07-12T08:58:18.778Z,99.99
2018-07-12T08:59:26.126Z,99.99
2018-07-12T09:00:19.155Z,99.99
2018-07-12T09:01:19.355Z,99.74
2018-07-12T09:02:19.524Z,99.99
2018-07-12T09:03:19.687Z,99.99
2018-07-12T09:04:19.861Z,99.99
2018-07-12T09:05:20.753Z,99.99
2018-07-12T09:06:20.167Z,99.99
2018-07-12T09:07:20.339Z,99.99
2018-07-12T09:08:20.506Z,99.99
2018-07-12T09:09:20.664Z,99.99
2018-07-12T09:12:04.231Z,99.99
2018-07-12T09:13:04.380Z,99.99
2018-07-12T09:14:04.557Z,99.99
2018-07-12T09:15:04.730Z,99.99
2018-07-12T09:16:12.363Z,99.99
2018-07-12T09:17:05.023Z,99.99
2018-07-12T09:18:05.194Z,99.99
2018-07-12T09:20:37.007Z,99.99
2018-07-12T09:21:37.209Z,99.50
2018-07-12T09:22:37.331Z,99.02
2018-07-12T09:23:37.496Z,99.40
2018-07-12T09:24:37.661Z,99.99
2018-07-12T09:25:37.844Z,99.99
2018-07-12T09:27:28.921Z,99.99
2018-07-12T09:27:38.229Z,99.99
2018-07-12T09:28:38.469Z,99.65
2018-07-12T09:29:38.559Z,99.16
2018-07-12T09:32:11.353Z,97.91
2018-07-12T09:33:14.352Z,96.17
2018-07-12T09:34:11.644Z,95.16
2018-07-12T09:35:11.807Z,94.38
2018-07-12T09:36:11.967Z,93.52
2018-07-12T09:37:12.142Z,92.26
2018-07-12T09:38:12.424Z,93.32
2018-07-12T09:39:13.515Z,90.87
2018-07-12T09:40:12.607Z,90.48
2018-07-12T09:41:13.371Z,90.96
2018-07-12T09:42:12.913Z,92.99
2018-07-12T09:43:14.878Z,96.89
2018-07-12T09:44:13.901Z,97.67
2018-07-12T09:45:21.358Z,96.27
2018-07-12T09:46:13.518Z,92.60
2018-07-12T09:47:13.696Z,95.21
2018-07-12T09:48:13.907Z,95.11
2018-07-12T09:49:14.074Z,95.35
2018-07-12T09:50:14.222Z,97.09
2018-07-12T09:51:14.393Z,94.05
2018-07-12T09:52:14.567Z,95.69
2018-07-12T09:53:14.727Z,95.98
2018-07-12T09:54:14.896Z,97.62
2018-07-12T09:55:15.080Z,97.42
2018-07-12T09:56:15.337Z,97.24
2018-07-12T09:57:15.423Z,98.00
2018-07-12T09:58:15.591Z,98.10
2018-07-12T09:59:15.748Z,98.29
2018-07-12T10:00:15.926Z,99.07
2018-07-12T10:01:25.053Z,99.26
2018-07-12T10:02:16.215Z,99.16
2018-07-12T10:03:16.386Z,99.45
2018-07-12T10:04:16.553Z,99.50
2018-07-12T10:05:16.723Z,99.26
2018-07-12T10:06:16.896Z,98.10
2018-07-12T10:07:17.060Z,97.62
2018-07-12T10:08:17.235Z,99.45
2018-07-12T10:09:24.868Z,99.99
2018-07-12T10:10:19.410Z,97.67
2018-07-12T10:11:17.711Z,97.09
2018-07-12T10:12:17.885Z,96.41
2018-07-12T10:13:18.924Z,96.61
2018-07-12T10:14:18.214Z,97.19
2018-07-12T10:15:18.393Z,97.09
2018-07-12T10:16:18.562Z,96.99
2018-07-12T10:17:18.723Z,96.51
2018-07-12T10:18:18.903Z,96.51
2018-07-12T10:19:19.058Z,97.28
2018-07-12T10:20:19.242Z,95.45
2018-07-12T10:21:19.395Z,94.96
2018-07-12T10:22:19.605Z,94.96
2018-07-12T10:23:27.803Z,95.01
2018-07-12T10:24:27.072Z,96.17
2018-07-12T10:25:19.981Z,98.10
2018-07-12T10:26:20.153Z,98.00
2018-07-12T10:27:20.310Z,98.73
2018-07-12T10:28:20.565Z,98.15
2018-07-12T10:29:22.289Z,96.70
2018-07-12T10:30:20.919Z,94.58
2018-07-12T10:31:28.453Z,96.51
2018-07-12T10:32:21.114Z,98.49
2018-07-12T10:33:21.289Z,95.59
2018-07-12T10:34:21.455Z,87.87
2018-07-12T10:35:21.630Z,92.41
2018-07-12T10:36:21.823Z,87.19
2018-07-12T10:37:23.490Z,88.06
2018-07-12T10:38:22.163Z,90.28
2018-07-12T10:39:22.329Z,93.95
2018-07-12T10:40:22.511Z,91.25
2018-07-12T10:41:22.678Z,84.05
2018-07-12T10:42:22.845Z,87.04
2018-07-12T10:43:23.018Z,84.82
2018-07-12T10:44:23.280Z,84.91
2018-07-12T10:45:23.377Z,84.05
2018-07-12T10:46:31.189Z,85.11
2018-07-12T10:47:23.736Z,85.21
2018-07-12T10:48:24.511Z,88.39
2018-07-12T10:49:24.061Z,87.23
2018-07-12T10:50:25.016Z,87.71
2018-07-12T10:51:24.433Z,84.63
2018-07-12T10:52:24.604Z,83.56
2018-07-12T10:53:24.777Z,83.47
2018-07-12T10:54:33.050Z,83.56
2018-07-12T10:55:25.084Z,86.61
2018-07-12T10:56:25.255Z,87.96
2018-07-12T10:57:25.450Z,89.12
2018-07-12T10:58:25.596Z,92.41
2018-07-12T10:59:25.770Z,91.44
2018-07-12T11:00:25.961Z,88.49
2018-07-12T11:01:26.145Z,91.00
2018-07-12T11:02:26.337Z,92.65
2018-07-12T11:03:26.484Z,90.33
2018-07-12T11:04:26.669Z,85.78
2018-07-12T11:05:26.816Z,86.27
2018-07-12T11:06:26.987Z,85.11
2018-07-12T11:07:34.842Z,84.91
2018-07-12T11:08:27.375Z,86.46
2018-07-12T11:09:27.547Z,85.83
2018-07-12T11:10:27.773Z,82.93
2018-07-12T11:11:27.887Z,82.45
2018-07-12T11:12:28.062Z,81.23
2018-07-12T11:13:28.233Z,76.20
2018-07-12T11:14:28.400Z,70.10
2018-07-12T11:15:28.572Z,72.33
2018-07-12T11:16:28.737Z,72.52
2018-07-12T11:17:29.476Z,73.59
2018-07-12T11:18:29.099Z,72.10
2018-07-12T11:19:29.269Z,74.32
2018-07-12T11:20:29.439Z,74.32
2018-07-12T11:21:29.610Z,72.30
2018-07-12T11:24:12.190Z,76.26
2018-07-12T11:25:12.364Z,73.46
2018-07-12T11:26:12.536Z,69.62
2018-07-12T11:27:12.707Z,67.56
2018-07-12T11:28:12.938Z,68.33
2018-07-12T11:29:13.047Z,66.69
2018-07-12T11:30:13.227Z,66.69
2018-07-12T11:31:13.389Z,68.82
2018-07-12T11:32:13.608Z,67.75
2018-07-12T11:33:13.735Z,69.30
2018-07-12T11:34:22.040Z,67.36
2018-07-12T11:35:14.086Z,68.24
2018-07-12T11:36:14.297Z,68.62
2018-07-12T11:37:14.448Z,68.62
2018-07-12T11:38:14.615Z,69.56
2018-07-12T11:39:14.784Z,71.58
2018-07-12T11:40:14.969Z,72.68
2018-07-12T11:41:15.139Z,71.81
2018-07-12T11:42:15.399Z,70.26
2018-07-12T11:43:16.569Z,68.82
2018-07-12T11:44:15.608Z,79.25
2018-07-12T11:45:15.912Z,72.52
2018-07-12T11:46:16.945Z,71.46
2018-07-12T11:47:16.195Z,70.68
2018-07-12T11:48:16.230Z,71.26
2018-07-12T11:49:16.395Z,71.36
2018-07-12T11:51:48.982Z,72.91
2018-07-12T11:52:49.203Z,69.56
2018-07-12T11:53:56.843Z,67.33
2018-07-12T11:54:49.510Z,71.30
2018-07-12T11:55:49.675Z,71.30
2018-07-12T11:56:49.849Z,67.82
2018-07-12T11:57:57.495Z,67.91
2018-07-12T11:58:50.759Z,66.08
2018-07-12T11:59:50.293Z,66.37
2018-07-12T12:00:50.469Z,71.88
2018-07-12T12:01:50.783Z,69.56
2018-07-12T12:02:50.820Z,67.53
2018-07-12T12:03:50.989Z,64.34
2018-07-12T12:04:51.158Z,66.17
2018-07-12T12:05:51.329Z,62.98
2018-07-12T12:06:51.557Z,62.88
2018-07-12T12:07:52.675Z,62.50
2018-07-12T12:08:51.865Z,63.76
2018-07-12T12:09:52.032Z,62.40
2018-07-12T12:10:52.193Z,62.79
2018-07-12T12:11:52.373Z,64.53
2018-07-12T12:14:34.672Z,64.82
2018-07-12T12:15:34.863Z,64.69
2018-07-12T12:16:35.013Z,66.08
2018-07-12T12:17:43.337Z,69.17
2018-07-12T12:18:36.355Z,69.66
2018-07-12T12:19:35.511Z,67.05
2018-07-12T12:20:35.683Z,66.75
2018-07-12T12:21:43.319Z,65.40
2018-07-12T12:22:35.979Z,64.82
2018-07-12T12:23:36.148Z,66.02
2018-07-12T12:24:36.322Z,66.11
2018-07-12T12:25:36.495Z,66.20
2018-07-12T12:26:36.681Z,65.82
2018-07-12T12:27:36.894Z,64.85
2018-07-12T12:28:37.024Z,66.50
2018-07-12T12:29:37.185Z,66.30
2018-07-12T12:30:37.364Z,64.75
2018-07-12T12:31:39.162Z,65.05
2018-07-12T12:32:37.749Z,64.75
2018-07-12T12:33:37.959Z,61.36
2018-07-12T12:34:38.097Z,61.18
2018-07-12T12:35:38.266Z,60.88
2018-07-12T12:38:20.544Z,60.50
2018-07-12T12:39:20.720Z,59.82
2018-07-12T12:40:20.902Z,60.50
2018-07-12T12:41:21.579Z,60.98
2018-07-12T12:42:21.242Z,62.24
2018-07-12T12:43:21.412Z,61.69
2018-07-12T12:44:21.590Z,61.01
2018-07-12T12:45:28.921Z,60.24
2018-07-12T12:46:21.962Z,63.72
2018-07-12T12:47:22.134Z,63.04
2018-07-12T12:49:53.900Z,62.69
2018-07-12T12:50:54.112Z,62.69
2018-07-12T12:51:54.305Z,59.00
2018-07-12T12:52:54.473Z,60.36
2018-07-12T12:53:54.648Z,57.68
2018-07-12T12:54:54.813Z,57.58
2018-07-12T12:55:55.068Z,57.07
2018-07-12T12:56:55.151Z,56.87
2018-07-12T12:57:55.322Z,57.75
2018-07-12T12:58:55.520Z,58.23
2018-07-12T12:59:55.675Z,59.97
2018-07-12T13:00:55.844Z,61.14
2018-07-12T13:01:56.012Z,59.39
2018-07-12T13:02:56.183Z,60.49
2018-07-12T13:03:57.112Z,60.27
2018-07-12T13:06:38.717Z,60.68
2018-07-12T13:07:46.058Z,58.26
2018-07-12T13:08:39.084Z,58.74
2018-07-12T13:09:39.256Z,58.26
2018-07-12T13:10:47.115Z,56.51
2018-07-12T13:11:39.541Z,56.51
2018-07-12T13:12:39.705Z,58.26
2018-07-12T13:13:39.875Z,58.09
2018-07-12T13:14:40.048Z,56.74
2018-07-12T13:15:40.212Z,57.32
2018-07-12T13:16:40.383Z,58.67
2018-07-12T13:17:40.556Z,57.12
2018-07-12T13:18:40.725Z,56.35
2018-07-12T13:19:40.931Z,55.57
2018-07-12T13:20:41.069Z,55.87
2018-07-12T13:21:41.774Z,57.03
2018-07-12T13:22:41.427Z,56.74
2018-07-12T13:23:41.633Z,57.22
2018-07-12T13:24:41.777Z,57.61
2018-07-12T13:27:24.059Z,54.41
2018-07-12T13:28:25.080Z,56.35
2018-07-12T13:29:24.382Z,56.25
2018-07-12T13:30:24.552Z,54.63
2018-07-12T13:31:31.901Z,54.70
2018-07-12T13:32:24.943Z,54.31
2018-07-12T13:33:26.104Z,53.63
2018-07-12T13:34:25.331Z,52.76
2018-07-12T13:35:25.507Z,56.05
2018-07-12T13:36:25.677Z,54.70
2018-07-12T13:37:25.850Z,54.02
2018-07-12T13:38:26.011Z,55.77
2018-07-12T13:39:26.190Z,56.47
2018-07-12T13:40:26.363Z,54.72
2018-07-12T13:41:27.525Z,53.27
2018-07-12T13:42:26.710Z,52.47
2018-07-12T13:43:26.882Z,52.37
2018-07-12T13:44:27.054Z,54.50
2018-07-12T13:45:27.221Z,56.25
2018-07-12T13:48:09.805Z,53.83
2018-07-12T13:49:09.980Z,54.05
2018-07-12T13:50:10.174Z,53.75
2018-07-12T13:51:10.348Z,53.75
2018-07-12T13:52:10.561Z,53.08
2018-07-12T13:53:10.690Z,53.95
2018-07-12T13:54:10.854Z,53.95
2018-07-12T13:55:11.024Z,54.11
2018-07-12T13:56:11.196Z,55.41
2018-07-12T13:57:11.365Z,54.34
2018-07-12T13:59:43.651Z,53.17
2018-07-12T14:00:43.823Z,52.40
2018-07-12T14:01:43.994Z,51.43
2018-07-12T14:02:44.233Z,51.72
2018-07-12T14:03:44.352Z,53.08
2018-07-12T14:04:47.168Z,52.33
2018-07-12T14:05:44.710Z,54.53
2018-07-12T14:06:46.677Z,51.93
2018-07-12T14:07:45.812Z,50.68
2018-07-12T14:08:45.252Z,51.16
2018-07-12T14:09:46.180Z,49.97
2018-07-12T14:10:47.175Z,49.97
2018-07-12T14:11:45.735Z,50.07
2018-07-12T14:12:45.896Z,52.66
2018-07-12T14:13:46.070Z,52.78
2018-07-12T14:16:18.644Z,51.53
2018-07-12T14:17:18.835Z,52.40
2018-07-12T14:18:19.010Z,52.52